createdAt,value
2019-05-20T00:00:31.855Z,24.72
2019-05-20T00:01:37.036Z,24.87
2019-05-20T00:02:41.718Z,25.48
2019-05-20T00:03:46.549Z,26.90
2019-05-20T00:04:51.602Z,25.17
2019-05-20T00:05:56.440Z,26.00
2019-05-20T00:07:01.024Z,26.33
2019-05-20T00:08:05.881Z,25.62
2019-05-20T00:09:10.584Z,24.60
2019-05-20T00:10:15.508Z,25.08
2019-05-20T00:11:20.117Z,24.47
2019-05-20T00:12:25.039Z,25.27
2019-05-20T00:13:29.710Z,26.00
2019-05-20T00:14:34.561Z,25.72
2019-05-20T00:15:39.172Z,24.95
2019-05-20T00:16:43.960Z,25.20
2019-05-20T00:17:48.576Z,26.07
2019-05-20T00:18:53.383Z,25.20
2019-05-20T00:19:58.034Z,24.50
2019-05-20T00:21:03.170Z,25.82
2019-05-20T00:22:07.778Z,26.30
2019-05-20T00:23:12.667Z,27.32
2019-05-20T00:24:17.333Z,25.08
2019-05-20T00:25:22.191Z,26.23
2019-05-20T00:26:26.943Z,27.62
2019-05-20T00:27:31.794Z,26.00
2019-05-20T00:28:36.466Z,25.65
2019-05-20T00:29:41.317Z,25.77
2019-05-20T00:30:46.022Z,27.45
2019-05-20T00:31:51.184Z,27.22
2019-05-20T00:32:55.835Z,26.57
2019-05-20T00:34:00.718Z,26.75
2019-05-20T00:35:07.189Z,27.77
2019-05-20T00:36:12.352Z,27.55
2019-05-20T00:37:17.308Z,27.77
2019-05-20T00:38:22.117Z,28.57
2019-05-20T00:39:26.758Z,28.98
2019-05-20T00:40:31.565Z,28.20
2019-05-20T00:41:36.524Z,26.65
2019-05-20T00:42:41.318Z,26.48
2019-05-20T00:43:47.021Z,26.73
2019-05-20T00:44:51.810Z,25.55
2019-05-20T00:45:56.412Z,26.60
2019-05-20T00:47:01.212Z,25.80
2019-05-20T00:48:05.898Z,26.30
2019-05-20T00:49:10.861Z,25.68
2019-05-20T00:50:15.608Z,26.65
2019-05-20T00:51:20.395Z,25.82
2019-05-20T00:52:25.171Z,25.55
2019-05-20T00:53:30.320Z,25.08
2019-05-20T00:54:35.093Z,26.30
2019-05-20T00:55:41.019Z,25.77
2019-05-20T00:56:46.510Z,25.40
2019-05-20T00:57:51.307Z,25.95
2019-05-20T00:58:56.266Z,26.40
2019-05-20T01:00:01.063Z,26.97
2019-05-20T01:01:05.883Z,26.97
2019-05-20T01:02:10.741Z,26.57
2019-05-20T01:03:15.418Z,26.95
2019-05-20T01:04:20.302Z,26.37
2019-05-20T01:05:25.303Z,27.02
2019-05-20T01:06:30.130Z,25.75
2019-05-20T01:07:34.719Z,26.70
2019-05-20T01:08:39.495Z,26.10
2019-05-20T01:09:44.123Z,27.20
2019-05-20T01:10:48.977Z,26.97
2019-05-20T01:11:53.595Z,27.48
2019-05-20T01:12:58.675Z,28.42
2019-05-20T01:14:03.361Z,26.62
2019-05-20T01:15:08.486Z,28.12
2019-05-20T01:16:13.173Z,28.12
2019-05-20T01:17:17.957Z,28.65
2019-05-20T01:18:22.593Z,28.98
2019-05-20T01:19:27.401Z,28.15
2019-05-20T01:20:32.356Z,28.70
2019-05-20T01:21:37.153Z,28.47
2019-05-20T01:22:41.830Z,28.57
2019-05-20T01:23:46.647Z,28.70
2019-05-20T01:24:51.269Z,29.95
2019-05-20T01:25:56.198Z,30.10
2019-05-20T01:27:00.898Z,29.12
2019-05-20T01:28:05.758Z,29.27
2019-05-20T01:29:10.385Z,31.23
2019-05-20T01:30:16.018Z,31.25
2019-05-20T01:31:20.634Z,32.42
2019-05-20T01:32:25.424Z,30.90
2019-05-20T01:33:30.032Z,31.82
2019-05-20T01:34:34.853Z,30.20
2019-05-20T01:35:39.828Z,31.33
2019-05-20T01:36:45.069Z,28.70
2019-05-20T01:37:49.976Z,28.80
2019-05-20T01:38:55.219Z,27.40
2019-05-20T01:40:00.143Z,26.80
2019-05-20T01:41:05.364Z,27.05
2019-05-20T01:42:09.973Z,28.00
2019-05-20T01:43:14.765Z,27.70
2019-05-20T01:44:19.468Z,29.00
2019-05-20T01:45:24.380Z,28.10
2019-05-20T01:46:29.360Z,28.27
2019-05-20T01:47:34.153Z,26.70
2019-05-20T01:48:38.826Z,28.65
2019-05-20T01:49:43.638Z,26.45
2019-05-20T01:50:48.650Z,25.30
2019-05-20T01:51:53.765Z,28.02
2019-05-20T01:52:58.386Z,28.95
2019-05-20T01:54:03.254Z,27.75
2019-05-20T01:55:08.417Z,27.62
2019-05-20T01:56:13.277Z,28.38
2019-05-20T01:57:17.888Z,28.07
2019-05-20T01:58:22.746Z,28.05
2019-05-20T01:59:27.712Z,27.80
2019-05-20T02:00:32.533Z,28.05
2019-05-20T02:01:37.134Z,28.73
2019-05-20T02:02:42.014Z,27.67
2019-05-20T02:03:46.987Z,28.02
2019-05-20T02:04:51.818Z,27.95
2019-05-20T02:05:56.728Z,26.68
2019-05-20T02:07:01.962Z,27.93
2019-05-20T02:08:06.629Z,28.57
2019-05-20T02:09:11.642Z,28.42
2019-05-20T02:10:16.398Z,27.02
2019-05-20T02:11:21.193Z,27.45
2019-05-20T02:12:26.080Z,29.00
2019-05-20T02:13:49.104Z,27.95
2019-05-20T02:14:57.916Z,27.45
2019-05-20T02:16:03.975Z,27.58
2019-05-20T02:17:08.534Z,28.45
2019-05-20T02:18:13.498Z,28.12
2019-05-20T02:19:18.453Z,27.60
2019-05-20T02:20:23.444Z,28.95
2019-05-20T02:21:28.160Z,27.45
2019-05-20T02:22:33.496Z,27.90
2019-05-20T02:23:37.940Z,28.27
2019-05-20T02:24:43.006Z,29.57
2019-05-20T02:25:48.796Z,28.20
2019-05-20T02:26:54.109Z,28.83
2019-05-20T02:27:58.532Z,29.27
2019-05-20T02:29:03.513Z,27.80
2019-05-20T02:30:09.552Z,28.73
2019-05-20T02:31:14.766Z,29.35
2019-05-20T02:32:20.040Z,27.70
2019-05-20T02:33:25.013Z,28.87
2019-05-20T02:34:29.532Z,29.87
2019-05-20T02:35:34.509Z,29.65
2019-05-20T02:36:38.936Z,29.52
2019-05-20T02:37:43.897Z,29.20
2019-05-20T02:38:49.381Z,29.85
2019-05-20T02:39:54.357Z,30.25
2019-05-20T02:40:59.215Z,30.12
2019-05-20T02:42:04.326Z,28.25
2019-05-20T02:43:09.093Z,30.48
2019-05-20T02:44:14.141Z,28.40
2019-05-20T02:45:18.765Z,28.40
2019-05-20T02:46:23.805Z,29.32
2019-05-20T02:47:28.232Z,29.80
2019-05-20T02:48:33.205Z,30.77
2019-05-20T02:49:37.628Z,31.15
2019-05-20T02:50:42.635Z,30.75
2019-05-20T02:51:48.113Z,31.10
2019-05-20T02:52:53.156Z,31.55
2019-05-20T02:53:57.576Z,32.38
2019-05-20T02:55:02.550Z,32.35
2019-05-20T02:56:08.126Z,32.15
2019-05-20T02:57:13.115Z,32.38
2019-05-20T02:58:17.550Z,31.95
2019-05-20T02:59:22.529Z,30.57
2019-05-20T03:00:27.109Z,30.32
2019-05-20T03:01:32.213Z,31.42
2019-05-20T03:02:36.728Z,30.08
2019-05-20T03:03:41.677Z,31.37
2019-05-20T03:04:46.107Z,31.42
2019-05-20T03:05:51.192Z,31.60
2019-05-20T03:06:56.702Z,32.13
2019-05-20T03:08:01.683Z,31.25
2019-05-20T03:09:06.563Z,31.33
2019-05-20T03:10:11.876Z,31.95
2019-05-20T03:11:16.317Z,31.60
2019-05-20T03:12:21.380Z,31.60
2019-05-20T03:13:25.845Z,31.85
2019-05-20T03:14:30.899Z,32.10
2019-05-20T03:15:35.781Z,32.25
2019-05-20T03:16:40.815Z,32.83
2019-05-20T03:17:45.673Z,31.65
2019-05-20T03:18:50.627Z,31.27
2019-05-20T03:19:55.122Z,32.13
2019-05-20T03:21:00.107Z,32.15
2019-05-20T03:22:05.497Z,32.08
2019-05-20T03:23:10.558Z,32.73
2019-05-20T03:24:15.058Z,33.55
2019-05-20T03:25:20.101Z,31.48
2019-05-20T03:26:24.533Z,32.63
2019-05-20T03:27:29.576Z,31.97
2019-05-20T03:28:34.177Z,32.95
2019-05-20T03:29:39.486Z,32.95
2019-05-20T03:30:44.359Z,34.53
2019-05-20T03:31:49.346Z,31.45
2019-05-20T03:32:53.756Z,33.05
2019-05-20T03:33:59.138Z,32.47
2019-05-20T03:35:07.320Z,33.13
2019-05-20T03:36:12.811Z,32.20
2019-05-20T03:37:17.569Z,32.05
2019-05-20T03:38:22.616Z,32.40
2019-05-20T03:39:27.576Z,31.95
2019-05-20T03:40:32.564Z,32.58
2019-05-20T03:41:37.407Z,33.15
2019-05-20T03:42:43.475Z,33.92
2019-05-20T03:43:48.187Z,34.78
2019-05-20T03:44:53.622Z,31.37
2019-05-20T03:45:58.069Z,33.00
2019-05-20T03:47:03.207Z,33.45
2019-05-20T03:48:07.658Z,32.70
2019-05-20T03:49:12.696Z,32.23
2019-05-20T03:50:17.234Z,32.03
2019-05-20T03:51:22.316Z,30.92
2019-05-20T03:52:26.806Z,32.15
2019-05-20T03:53:31.776Z,31.77
2019-05-20T03:54:36.605Z,31.50
2019-05-20T03:55:41.597Z,30.43
2019-05-20T03:56:46.021Z,31.10
2019-05-20T03:57:51.355Z,32.50
2019-05-20T03:58:55.853Z,31.93
2019-05-20T04:00:00.893Z,32.05
2019-05-20T04:01:05.501Z,32.85
2019-05-20T04:02:10.618Z,30.48
2019-05-20T04:03:15.487Z,33.90
2019-05-20T04:04:20.460Z,31.37
2019-05-20T04:05:25.198Z,31.07
2019-05-20T04:06:30.197Z,30.35
2019-05-20T04:07:34.637Z,32.08
2019-05-20T04:08:39.843Z,30.17
2019-05-20T04:09:44.573Z,30.50
2019-05-20T04:10:49.639Z,36.77
2019-05-20T04:11:54.135Z,35.00
2019-05-20T04:12:59.668Z,31.85
2019-05-20T04:14:04.225Z,32.30
2019-05-20T04:15:10.218Z,31.93
2019-05-20T04:16:14.656Z,30.75
2019-05-20T04:17:19.638Z,38.80
2019-05-20T04:18:24.056Z,33.67
2019-05-20T04:19:29.122Z,39.60
2019-05-20T04:20:33.626Z,32.88
2019-05-20T04:21:38.610Z,30.23
2019-05-20T04:22:43.439Z,31.42
2019-05-20T04:23:48.651Z,30.72
2019-05-20T04:24:53.076Z,32.10
2019-05-20T04:25:58.507Z,31.93
2019-05-20T04:27:02.967Z,31.70
2019-05-20T04:28:08.012Z,29.27
2019-05-20T04:29:12.740Z,29.25
2019-05-20T04:30:19.182Z,30.57
2019-05-20T04:31:23.780Z,32.93
2019-05-20T04:32:28.853Z,34.40
2019-05-20T04:33:33.946Z,33.50
2019-05-20T04:34:38.976Z,29.55
2019-05-20T04:35:43.835Z,30.72
2019-05-20T04:36:48.829Z,29.00
2019-05-20T04:37:53.403Z,29.32
2019-05-20T04:38:58.446Z,35.85
2019-05-20T04:40:04.373Z,29.50
2019-05-20T04:41:09.801Z,28.02
2019-05-20T04:42:14.290Z,28.73
2019-05-20T04:43:20.588Z,30.12
2019-05-20T04:44:25.005Z,31.48
2019-05-20T04:45:31.519Z,30.62
2019-05-20T04:46:36.336Z,27.58
2019-05-20T04:47:41.406Z,26.93
2019-05-20T04:48:45.846Z,27.87
2019-05-20T04:49:50.888Z,27.58
2019-05-20T04:50:55.313Z,29.85
2019-05-20T04:52:00.302Z,31.33
2019-05-20T04:53:04.794Z,28.85
2019-05-20T04:54:09.772Z,28.60
2019-05-20T04:55:14.327Z,27.70
2019-05-20T04:56:19.300Z,25.95
2019-05-20T04:57:23.745Z,27.32
2019-05-20T04:58:29.172Z,25.43
2019-05-20T04:59:33.913Z,25.68
2019-05-20T05:00:51.188Z,25.92
2019-05-20T05:01:56.707Z,26.65
2019-05-20T05:03:01.673Z,26.45
2019-05-20T05:04:06.169Z,26.12
2019-05-20T05:05:11.777Z,26.12
2019-05-20T05:06:16.204Z,24.63
2019-05-20T05:07:21.373Z,25.65
2019-05-20T05:08:26.051Z,26.27
2019-05-20T05:09:31.377Z,26.60
2019-05-20T05:10:35.912Z,25.32
2019-05-20T05:11:41.039Z,24.15
2019-05-20T05:12:45.557Z,26.00
2019-05-20T05:13:50.971Z,25.27
2019-05-20T05:14:55.519Z,24.15
2019-05-20T05:16:00.645Z,24.63
2019-05-20T05:17:05.323Z,22.48
2019-05-20T05:18:10.749Z,24.00
2019-05-20T05:19:15.245Z,24.30
2019-05-20T05:20:20.288Z,24.63
2019-05-20T05:21:25.056Z,23.75
2019-05-20T05:22:30.116Z,23.38
2019-05-20T05:23:34.609Z,22.48
2019-05-20T05:24:39.725Z,23.32
2019-05-20T05:25:44.695Z,22.58
2019-05-20T05:26:49.743Z,28.35
2019-05-20T05:27:54.181Z,23.02
2019-05-20T05:28:59.578Z,27.60
2019-05-20T05:30:06.078Z,23.85
2019-05-20T05:31:11.353Z,23.02
2019-05-20T05:32:17.438Z,21.95
2019-05-20T05:33:22.451Z,20.97
2019-05-20T05:34:26.942Z,21.17
2019-05-20T05:35:32.058Z,19.73
2019-05-20T05:36:36.616Z,20.20
2019-05-20T05:37:41.838Z,19.50
2019-05-20T05:38:46.210Z,25.85
2019-05-20T05:39:51.267Z,25.95
2019-05-20T05:40:55.959Z,26.37
2019-05-20T05:42:00.940Z,23.77
2019-05-20T05:43:05.450Z,22.27
2019-05-20T05:44:10.421Z,21.55
2019-05-20T05:45:15.462Z,23.07
2019-05-20T05:46:20.468Z,20.10
2019-05-20T05:47:24.912Z,20.85
2019-05-20T05:48:30.216Z,19.90
2019-05-20T05:49:34.633Z,19.62
2019-05-20T05:50:39.683Z,20.57
2019-05-20T05:51:44.100Z,22.05
2019-05-20T05:52:49.099Z,20.85
2019-05-20T05:53:53.924Z,19.70
2019-05-20T05:54:58.934Z,18.70
2019-05-20T05:56:03.641Z,20.15
2019-05-20T05:57:08.685Z,21.48
2019-05-20T05:58:13.189Z,23.25
2019-05-20T05:59:18.166Z,23.80
2019-05-20T06:00:22.932Z,21.33
2019-05-20T06:01:27.973Z,19.15
2019-05-20T06:02:32.426Z,21.55
2019-05-20T06:03:38.408Z,20.70
2019-05-20T06:04:43.122Z,26.77
2019-05-20T06:05:49.073Z,26.42
2019-05-20T06:06:53.507Z,19.30
2019-05-20T06:07:58.508Z,20.68
2019-05-20T06:09:04.694Z,20.92
2019-05-20T06:10:10.113Z,21.25
2019-05-20T06:11:14.541Z,21.52
2019-05-20T06:12:19.674Z,17.27
2019-05-20T06:13:24.104Z,21.45
2019-05-20T06:14:29.077Z,19.80
2019-05-20T06:15:34.011Z,21.17
2019-05-20T06:16:38.995Z,16.93
2019-05-20T06:17:43.720Z,17.17
2019-05-20T06:18:48.717Z,16.25
2019-05-20T06:19:53.135Z,15.95
2019-05-20T06:20:58.112Z,16.50
2019-05-20T06:22:03.683Z,16.73
2019-05-20T06:23:08.792Z,14.93
2019-05-20T06:24:13.565Z,23.47
2019-05-20T06:25:19.084Z,18.12
2019-05-20T06:26:23.638Z,18.80
2019-05-20T06:27:29.741Z,14.93
2019-05-20T06:28:34.125Z,15.05
2019-05-20T06:29:39.193Z,14.38
2019-05-20T06:30:44.852Z,13.83
2019-05-20T06:31:49.946Z,13.55
2019-05-20T06:32:54.436Z,13.65
2019-05-20T06:33:59.414Z,13.15
2019-05-20T06:35:07.726Z,12.53
2019-05-20T06:36:25.930Z,12.58
2019-05-20T06:37:20.867Z,12.25
2019-05-20T06:38:35.798Z,12.35
2019-05-20T06:39:40.218Z,13.00
2019-05-20T06:40:45.275Z,17.02
2019-05-20T06:41:50.422Z,13.48
2019-05-20T06:42:58.147Z,12.47
2019-05-20T06:44:02.574Z,12.70
2019-05-20T06:45:08.200Z,12.90
2019-05-20T06:46:12.618Z,12.45
2019-05-20T06:47:18.020Z,11.43
2019-05-20T06:48:22.527Z,12.45
2019-05-20T06:49:27.517Z,13.00
2019-05-20T06:50:32.248Z,13.50
2019-05-20T06:51:37.295Z,12.85
2019-05-20T06:52:41.724Z,13.93
2019-05-20T06:53:46.727Z,12.30
2019-05-20T06:54:51.179Z,12.58
2019-05-20T06:55:56.217Z,11.35
2019-05-20T06:57:01.810Z,14.63
2019-05-20T06:58:06.841Z,10.45
2019-05-20T06:59:11.373Z,10.50
2019-05-20T07:00:22.110Z,11.75
2019-05-20T07:01:26.600Z,12.88
2019-05-20T07:02:32.974Z,12.82
2019-05-20T07:03:37.893Z,14.38
2019-05-20T07:04:42.881Z,11.40
2019-05-20T07:05:47.312Z,11.73
2019-05-20T07:06:52.660Z,11.53
2019-05-20T07:07:57.585Z,11.83
2019-05-20T07:09:02.913Z,11.75
2019-05-20T07:10:09.296Z,14.23
2019-05-20T07:11:14.270Z,12.25
2019-05-20T07:12:18.692Z,12.15
2019-05-20T07:13:23.744Z,16.57
2019-05-20T07:14:28.188Z,12.50
2019-05-20T07:15:33.238Z,11.30
2019-05-20T07:16:37.873Z,13.83
2019-05-20T07:17:42.915Z,11.00
2019-05-20T07:18:47.525Z,11.25
2019-05-20T07:19:52.673Z,12.10
2019-05-20T07:20:57.166Z,11.73
2019-05-20T07:22:02.623Z,11.73
2019-05-20T07:23:07.194Z,13.45
2019-05-20T07:24:12.572Z,11.57
2019-05-20T07:25:17.331Z,11.65
2019-05-20T07:26:22.480Z,10.80
2019-05-20T07:27:26.969Z,11.18
2019-05-20T07:28:31.954Z,11.45
2019-05-20T07:29:36.748Z,11.85
2019-05-20T07:30:41.790Z,14.13
2019-05-20T07:31:46.287Z,10.85
2019-05-20T07:32:51.339Z,11.70
2019-05-20T07:33:55.952Z,10.35
2019-05-20T07:35:00.979Z,13.25
2019-05-20T07:36:09.817Z,10.78
2019-05-20T07:37:13.255Z,11.33
2019-05-20T07:38:17.739Z,10.82
2019-05-20T07:39:22.741Z,10.75
2019-05-20T07:40:31.525Z,9.33
2019-05-20T07:41:36.513Z,11.28
2019-05-20T07:42:40.925Z,11.83
2019-05-20T07:43:46.040Z,10.85
2019-05-20T07:44:50.615Z,11.10
2019-05-20T07:45:55.928Z,9.90
2019-05-20T07:47:00.556Z,10.68
2019-05-20T07:48:06.361Z,13.50
2019-05-20T07:49:11.986Z,22.35
2019-05-20T07:50:17.744Z,15.00
2019-05-20T07:51:23.169Z,10.68
2019-05-20T07:52:29.322Z,9.93
2019-05-20T07:53:34.488Z,9.68
2019-05-20T07:54:39.919Z,18.90
2019-05-20T07:55:53.227Z,15.40
2019-05-20T07:57:01.468Z,11.43
2019-05-20T07:58:08.557Z,9.60
2019-05-20T07:59:15.978Z,10.25
2019-05-20T08:00:20.952Z,10.08
2019-05-20T08:01:26.145Z,10.05
2019-05-20T08:02:31.007Z,17.37
2019-05-20T08:03:38.582Z,16.97
2019-05-20T08:04:42.310Z,19.02
2019-05-20T08:05:47.287Z,13.20
2019-05-20T08:06:51.891Z,11.57
2019-05-20T08:07:57.004Z,12.30
2019-05-20T08:09:01.614Z,9.10
2019-05-20T08:10:08.806Z,11.33
2019-05-20T08:11:13.378Z,15.13
2019-05-20T08:12:18.547Z,14.53
2019-05-20T08:13:23.042Z,10.40
2019-05-20T08:14:28.357Z,10.90
2019-05-20T08:15:33.173Z,11.57
2019-05-20T08:16:38.225Z,19.60
2019-05-20T08:17:42.655Z,10.72
2019-05-20T08:18:47.883Z,13.95
2019-05-20T08:19:52.326Z,13.75
2019-05-20T08:20:57.456Z,13.38
2019-05-20T08:22:01.874Z,8.85
2019-05-20T08:23:06.969Z,11.65
2019-05-20T08:24:11.402Z,10.32
2019-05-20T08:25:16.936Z,8.98
2019-05-20T08:26:21.501Z,10.03
2019-05-20T08:27:26.610Z,10.53
2019-05-20T08:28:31.188Z,17.10
2019-05-20T08:29:36.543Z,21.57
2019-05-20T08:30:41.121Z,10.85
2019-05-20T08:31:46.092Z,9.33
2019-05-20T08:32:50.826Z,9.38
2019-05-20T08:33:56.106Z,10.13
2019-05-20T08:35:01.672Z,9.63
2019-05-20T08:36:06.845Z,10.45
2019-05-20T08:37:17.811Z,10.56
2019-05-20T08:38:23.907Z,11.28
2019-05-20T08:39:28.399Z,7.67
2019-05-20T08:40:33.404Z,7.92
2019-05-20T08:41:37.924Z,12.35
2019-05-20T08:42:42.897Z,12.65
2019-05-20T08:43:47.474Z,25.35
2019-05-20T08:44:52.501Z,24.02
2019-05-20T08:45:56.961Z,11.63
2019-05-20T08:47:02.061Z,13.00
2019-05-20T08:48:06.690Z,13.18
2019-05-20T08:49:11.976Z,11.90
2019-05-20T08:50:16.651Z,8.50
2019-05-20T08:51:21.683Z,8.43
2019-05-20T08:52:26.057Z,9.80
2019-05-20T08:53:31.080Z,11.08
2019-05-20T08:54:35.500Z,13.00
2019-05-20T08:55:40.578Z,9.68
2019-05-20T08:56:48.713Z,7.83
2019-05-20T08:57:51.950Z,14.10
2019-05-20T08:58:56.926Z,16.67
2019-05-20T09:00:02.559Z,9.65
2019-05-20T09:01:08.908Z,11.30
2019-05-20T09:02:14.268Z,8.48
2019-05-20T09:03:18.765Z,12.73
2019-05-20T09:04:23.744Z,11.93
2019-05-20T09:05:28.926Z,12.28
2019-05-20T09:06:34.093Z,8.68
2019-05-20T09:07:39.588Z,11.18
2019-05-20T09:08:44.579Z,9.28
2019-05-20T09:09:49.177Z,12.15
2019-05-20T09:10:54.177Z,11.55
2019-05-20T09:11:58.635Z,8.35
2019-05-20T09:13:03.666Z,9.05
2019-05-20T09:14:08.199Z,10.65
2019-05-20T09:15:13.910Z,14.13
2019-05-20T09:16:18.439Z,10.20
2019-05-20T09:17:23.473Z,8.83
2019-05-20T09:18:27.913Z,10.20
2019-05-20T09:19:34.228Z,9.20
2019-05-20T09:20:38.683Z,10.50
2019-05-20T09:21:43.761Z,11.28
2019-05-20T09:22:48.258Z,7.30
2019-05-20T09:23:53.368Z,6.78
2019-05-20T09:24:57.979Z,6.72
2019-05-20T09:26:03.213Z,6.40
2019-05-20T09:27:07.955Z,6.85
2019-05-20T09:28:13.011Z,7.05
2019-05-20T09:29:17.550Z,7.12
2019-05-20T09:30:23.187Z,11.05
2019-05-20T09:31:28.474Z,9.35
2019-05-20T09:32:33.585Z,7.08
2019-05-20T09:33:38.739Z,6.08
2019-05-20T09:34:44.023Z,6.50
2019-05-20T09:35:49.018Z,9.15
2019-05-20T09:36:54.254Z,9.20
2019-05-20T09:37:58.734Z,8.80
2019-05-20T09:39:05.358Z,10.90
2019-05-20T09:40:10.707Z,14.28
2019-05-20T09:41:15.900Z,12.43
2019-05-20T09:42:20.385Z,8.88
2019-05-20T09:43:25.421Z,7.90
2019-05-20T09:44:30.195Z,9.88
2019-05-20T09:45:35.713Z,8.08
2019-05-20T09:46:40.214Z,8.78
2019-05-20T09:47:45.266Z,8.65
2019-05-20T09:48:49.839Z,10.23
2019-05-20T09:49:54.821Z,7.30
2019-05-20T09:50:59.579Z,6.55
2019-05-20T09:52:04.641Z,8.50
2019-05-20T09:53:09.493Z,8.98
2019-05-20T09:54:14.535Z,8.88
2019-05-20T09:55:19.099Z,7.08
2019-05-20T09:56:24.153Z,6.90
2019-05-20T09:57:29.575Z,6.70
2019-05-20T09:58:34.535Z,7.37
2019-05-20T09:59:43.332Z,7.75
2019-05-20T10:00:47.026Z,9.30
2019-05-20T10:01:52.544Z,7.62
2019-05-20T10:02:57.644Z,7.67
2019-05-20T10:04:02.217Z,6.70
2019-05-20T10:05:07.512Z,6.70
2019-05-20T10:06:12.068Z,8.73
2019-05-20T10:07:17.068Z,6.40
2019-05-20T10:08:36.425Z,6.28
2019-05-20T10:09:28.852Z,7.10
2019-05-20T10:10:33.367Z,10.85
2019-05-20T10:11:39.623Z,9.80
2019-05-20T10:12:46.391Z,12.80
2019-05-20T10:13:50.722Z,10.70
2019-05-20T10:14:55.134Z,5.83
2019-05-20T10:16:00.187Z,6.00
2019-05-20T10:17:04.723Z,9.28
2019-05-20T10:18:10.158Z,7.28
2019-05-20T10:19:15.552Z,6.22
2019-05-20T10:20:20.762Z,7.72
2019-05-20T10:21:25.440Z,6.55
2019-05-20T10:22:30.500Z,6.22
2019-05-20T10:23:35.200Z,6.90
2019-05-20T10:24:40.240Z,12.55
2019-05-20T10:25:44.657Z,8.48
2019-05-20T10:26:49.655Z,8.75
2019-05-20T10:27:57.557Z,9.23
2019-05-20T10:29:00.897Z,6.95
2019-05-20T10:30:08.663Z,7.00
2019-05-20T10:31:13.635Z,7.00
2019-05-20T10:32:18.078Z,10.98
2019-05-20T10:33:23.372Z,7.65
2019-05-20T10:34:27.816Z,9.40
2019-05-20T10:35:32.825Z,7.50
2019-05-20T10:36:37.327Z,5.62
2019-05-20T10:37:42.381Z,10.03
2019-05-20T10:38:58.195Z,9.25
2019-05-20T10:39:53.805Z,9.15
2019-05-20T10:40:58.238Z,9.93
2019-05-20T10:42:03.297Z,10.08
2019-05-20T10:43:07.853Z,7.17
2019-05-20T10:44:12.906Z,11.38
2019-05-20T10:45:17.469Z,14.65
2019-05-20T10:46:22.722Z,8.33
2019-05-20T10:47:27.228Z,6.33
2019-05-20T10:48:32.194Z,7.08
2019-05-20T10:49:36.682Z,7.90
2019-05-20T10:50:41.761Z,8.48
2019-05-20T10:51:46.288Z,10.70
2019-05-20T10:52:51.677Z,8.90
2019-05-20T10:53:56.111Z,8.55
2019-05-20T10:55:01.408Z,9.10
2019-05-20T10:56:06.055Z,7.10
2019-05-20T10:57:11.277Z,11.05
2019-05-20T10:58:15.712Z,8.18
2019-05-20T10:59:20.710Z,10.10
2019-05-20T11:00:25.355Z,10.45
2019-05-20T11:01:30.645Z,6.03
2019-05-20T11:02:35.175Z,6.12
2019-05-20T11:03:40.232Z,6.03
2019-05-20T11:04:44.667Z,6.45
2019-05-20T11:05:49.800Z,15.23
2019-05-20T11:06:54.248Z,12.65
2019-05-20T11:07:59.296Z,8.63
2019-05-20T11:09:13.666Z,9.13
2019-05-20T11:10:11.926Z,8.93
2019-05-20T11:11:16.389Z,8.35
2019-05-20T11:12:21.446Z,18.25
2019-05-20T11:13:26.097Z,11.40
2019-05-20T11:14:31.173Z,8.83
2019-05-20T11:15:35.606Z,7.90
2019-05-20T11:16:40.743Z,6.45
2019-05-20T11:17:45.201Z,9.60
2019-05-20T11:18:50.202Z,6.33
2019-05-20T11:19:54.648Z,6.37
2019-05-20T11:20:59.708Z,6.67
2019-05-20T11:22:04.288Z,6.40
2019-05-20T11:23:09.699Z,6.30
2019-05-20T11:24:14.141Z,6.50
2019-05-20T11:25:19.348Z,7.10
2019-05-20T11:26:24.824Z,7.30
2019-05-20T11:27:29.844Z,7.20
2019-05-20T11:28:34.291Z,6.97
2019-05-20T11:29:39.289Z,6.37
2019-05-20T11:30:43.816Z,10.20
2019-05-20T11:31:48.821Z,14.83
2019-05-20T11:32:53.420Z,8.53
2019-05-20T11:33:58.416Z,9.40
2019-05-20T11:35:03.392Z,9.90
2019-05-20T11:36:08.763Z,9.15
2019-05-20T11:37:13.310Z,7.22
2019-05-20T11:38:18.356Z,6.70
2019-05-20T11:39:33.343Z,6.58
2019-05-20T11:40:29.633Z,6.33
2019-05-20T11:41:52.858Z,6.29
2019-05-20T11:42:44.384Z,12.37
2019-05-20T11:43:48.899Z,20.02
2019-05-20T11:44:53.904Z,17.07
2019-05-20T11:45:58.419Z,11.97
2019-05-20T11:47:03.450Z,7.97
2019-05-20T11:48:08.340Z,10.38
2019-05-20T11:49:13.416Z,20.02
2019-05-20T11:50:18.199Z,10.98
2019-05-20T11:51:23.195Z,9.40
2019-05-20T11:52:27.762Z,9.28
2019-05-20T11:53:32.868Z,6.90
2019-05-20T11:54:37.308Z,7.47
2019-05-20T11:55:42.310Z,9.25
2019-05-20T11:56:46.825Z,11.10
2019-05-20T11:57:51.839Z,8.55
2019-05-20T11:58:56.637Z,7.67
2019-05-20T12:00:01.987Z,7.20
2019-05-20T12:01:06.691Z,7.60
2019-05-20T12:02:11.750Z,8.63
2019-05-20T12:03:16.217Z,11.95
2019-05-20T12:04:21.277Z,9.50
2019-05-20T12:05:25.739Z,22.48
2019-05-20T12:06:30.973Z,16.25
2019-05-20T12:07:35.499Z,39.50
2019-05-20T12:08:41.491Z,20.40
2019-05-20T12:09:49.664Z,14.15
2019-05-20T12:10:53.340Z,14.35
2019-05-20T12:11:58.125Z,12.28
2019-05-20T12:13:03.162Z,14.30
2019-05-20T12:14:07.587Z,11.38
2019-05-20T12:15:14.025Z,10.72
2019-05-20T12:16:18.548Z,8.35
2019-05-20T12:17:23.540Z,8.35
2019-05-20T12:18:29.141Z,10.05
2019-05-20T12:19:34.137Z,10.95
2019-05-20T12:20:38.870Z,14.00
2019-05-20T12:21:43.883Z,14.60
2019-05-20T12:22:48.613Z,23.80
2019-05-20T12:23:53.636Z,15.20
2019-05-20T12:24:58.086Z,26.17
2019-05-20T12:26:03.151Z,12.65
2019-05-20T12:27:07.592Z,12.63
2019-05-20T12:28:12.978Z,9.95
2019-05-20T12:29:17.469Z,8.90
2019-05-20T12:30:23.491Z,8.65
2019-05-20T12:31:27.926Z,19.82
2019-05-20T12:32:33.205Z,13.05
2019-05-20T12:33:37.664Z,18.90
2019-05-20T12:34:44.012Z,9.40
2019-05-20T12:35:48.449Z,9.20
2019-05-20T12:36:53.509Z,10.58
2019-05-20T12:37:58.275Z,14.20
2019-05-20T12:39:03.851Z,11.57
2019-05-20T12:40:09.060Z,9.15
2019-05-20T12:41:14.212Z,9.40
2019-05-20T12:42:18.653Z,7.37
2019-05-20T12:43:24.008Z,8.15
2019-05-20T12:44:28.444Z,7.90
2019-05-20T12:45:33.579Z,8.08
2019-05-20T12:46:38.097Z,7.65
2019-05-20T12:47:43.175Z,7.78
2019-05-20T12:48:47.708Z,8.35
2019-05-20T12:49:52.718Z,8.28
2019-05-20T12:50:57.162Z,8.28
2019-05-20T12:52:02.212Z,8.28
2019-05-20T12:53:06.666Z,8.18
2019-05-20T12:54:11.684Z,8.80
2019-05-20T12:55:16.251Z,8.50
2019-05-20T12:56:21.610Z,8.30
2019-05-20T12:57:26.430Z,8.58
2019-05-20T12:58:31.425Z,7.95
2019-05-20T12:59:36.160Z,8.20
2019-05-20T13:00:41.166Z,9.43
2019-05-20T13:01:45.683Z,9.03
2019-05-20T13:02:50.740Z,9.38
2019-05-20T13:03:55.205Z,8.65
2019-05-20T13:05:00.186Z,8.80
2019-05-20T13:06:04.695Z,7.92
2019-05-20T13:07:09.745Z,9.10
2019-05-20T13:08:14.251Z,7.65
2019-05-20T13:09:19.262Z,8.63
2019-05-20T13:10:29.646Z,11.78
2019-05-20T13:11:30.533Z,9.55
2019-05-20T13:12:34.974Z,9.78
2019-05-20T13:13:39.943Z,9.60
2019-05-20T13:14:44.421Z,8.30
2019-05-20T13:15:49.685Z,8.30
2019-05-20T13:16:54.102Z,8.95
2019-05-20T13:17:59.431Z,8.10
2019-05-20T13:19:03.869Z,10.00
2019-05-20T13:20:10.853Z,13.68
2019-05-20T13:21:15.273Z,9.53
2019-05-20T13:22:20.589Z,9.65
2019-05-20T13:23:25.281Z,9.28
2019-05-20T13:24:30.282Z,8.35
2019-05-20T13:25:36.042Z,7.90
2019-05-20T13:26:41.364Z,8.45
2019-05-20T13:27:45.849Z,9.00
2019-05-20T13:28:50.820Z,8.48
2019-05-20T13:29:55.624Z,10.80
2019-05-20T13:31:00.594Z,7.92
2019-05-20T13:32:05.039Z,9.38
2019-05-20T13:33:10.038Z,9.05
2019-05-20T13:34:18.385Z,8.95
2019-05-20T13:35:22.687Z,10.23
2019-05-20T13:36:27.186Z,10.13
2019-05-20T13:37:32.564Z,16.40
2019-05-20T13:38:37.055Z,11.85
2019-05-20T13:39:42.053Z,10.70
2019-05-20T13:40:47.524Z,10.65
2019-05-20T13:41:52.613Z,10.13
2019-05-20T13:42:57.449Z,9.70
2019-05-20T13:44:02.447Z,8.85
2019-05-20T13:45:07.853Z,8.73
2019-05-20T13:46:12.877Z,8.75
2019-05-20T13:47:17.368Z,9.28
2019-05-20T13:48:22.475Z,8.98
2019-05-20T13:49:26.906Z,8.73
2019-05-20T13:50:31.881Z,8.78
2019-05-20T13:51:38.641Z,9.25
2019-05-20T13:52:43.030Z,8.98
2019-05-20T13:53:47.453Z,9.18
2019-05-20T13:54:53.417Z,9.15
2019-05-20T13:55:57.900Z,9.28
2019-05-20T13:57:02.877Z,12.10
2019-05-20T13:58:07.361Z,10.05
2019-05-20T13:59:12.349Z,11.45
2019-05-20T14:00:17.841Z,12.35
2019-05-20T14:01:22.820Z,10.10
2019-05-20T14:02:27.376Z,9.95
2019-05-20T14:03:32.424Z,10.23
2019-05-20T14:04:37.133Z,9.80
2019-05-20T14:05:42.184Z,10.70